Time;durP1;ratioP1;P1;durP2;ratioP2;P2;SDS_P1;SDS_P2;PMS_P1;PMS_P2;Temp;Humidity;BMP_temperature;BMP_pressure;BME280_temperature;BME280_humidity;BME280_pressure;Samples;Min_cycle;Max_cycle;Signal;HPM_P1;HPM_P2
2022/04/20 00:01:24;;;;;;;8.47;7.63;;;;;;;;;;5055792;28;20518;-57
2022/04/20 00:03:50;;;;;;;9.43;8.40;;;;;;;;;;5055879;28;20412;-60
2022/04/20 00:06:16;;;;;;;9.47;7.90;;;;;;;;;;5055753;28;20412;-55
2022/04/20 00:08:42;;;;;;;7.97;7.20;;;;;;;;;;5055553;28;20810;-61
2022/04/20 00:11:08;;;;;;;12.90;7.83;;;;;;;;;;5054313;28;20477;-62
2022/04/20 00:13:35;;;;;;;8.00;6.83;;;;;;;;;;5055561;28;20404;-54
2022/04/20 00:16:01;;;;;;;9.90;8.30;;;;;;;;;;5055414;28;20474;-57
2022/04/20 00:18:27;;;;;;;8.20;7.40;;;;;;;;;;5055445;28;21002;-54
2022/04/20 00:20:53;;;;;;;9.10;7.90;;;;;;;;;;5054021;28;20485;-57
2022/04/20 00:23:19;;;;;;;9.37;7.67;;;;;;;;;;5055417;28;20916;-56
2022/04/20 00:25:45;;;;;;;8.60;7.57;;;;;;;;;;5055226;28;20975;-59
2022/04/20 00:28:11;;;;;;;9.13;8.13;;;;;;;;;;5054276;28;20521;-56
2022/04/20 00:30:37;;;;;;;8.40;7.50;;;;;;;;;;5055077;28;20454;-58
2022/04/20 00:33:03;;;;;;;8.83;7.93;;;;;;;;;;5055241;28;20418;-59
2022/04/20 00:35:29;;;;;;;9.00;7.60;;;;;;;;;;5055021;28;20533;-63
2022/04/20 00:37:55;;;;;;;12.20;7.63;;;;;;;;;;5055061;28;20419;-61
2022/04/20 00:40:22;;;;;;;13.30;8.00;;;;;;;;;;5055105;28;20415;-60
2022/04/20 00:42:48;;;;;;;8.77;7.87;;;;;;;;;;5055008;28;20443;-59
2022/04/20 00:45:14;;;;;;;10.67;8.50;;;;;;;;;;5054846;28;20424;-59
2022/04/20 00:47:45;;;;;;;9.60;8.60;;;;;;;;;;5054884;28;20438;-60
2022/04/20 00:50:11;;;;;;;11.90;9.03;;;;;;;;;;5054737;28;20537;-58
2022/04/20 00:52:38;;;;;;;11.20;8.53;;;;;;;;;;5054878;28;20399;-58
2022/04/20 00:55:04;;;;;;;9.80;8.80;;;;;;;;;;5054648;28;20562;-58
2022/04/20 00:57:30;;;;;;;10.50;8.03;;;;;;;;;;5054610;28;20407;-58
2022/04/20 01:00:01;;;;;;;10.70;8.97;;;;;;;;;;5054511;28;20411;-59
2022/04/20 01:02:27;;;;;;;12.70;9.10;;;;;;;;;;5054658;28;20498;-58
2022/04/20 01:04:53;;;;;;;9.10;8.20;;;;;;;;;;5054705;28;20926;-63
2022/04/20 01:07:22;;;;;;;10.43;9.10;;;;;;;;;;5054686;28;20529;-60
2022/04/20 01:09:47;;;;;;;13.90;8.30;;;;;;;;;;5053276;28;20416;-56
2022/04/20 01:12:18;;;;;;;13.70;8.90;;;;;;;;;;5054151;28;20403;-62
2022/04/20 01:14:44;;;;;;;11.20;9.10;;;;;;;;;;5054266;28;20517;-53
2022/04/20 01:17:10;;;;;;;13.57;9.50;;;;;;;;;;5054411;28;20895;-57
2022/04/20 01:19:40;;;;;;;12.57;9.90;;;;;;;;;;5054174;28;20420;-56
2022/04/20 01:22:06;;;;;;;9.57;8.40;;;;;;;;;;5054235;28;20424;-56
2022/04/20 01:24:33;;;;;;;14.63;8.90;;;;;;;;;;5054339;28;20745;-61
2022/04/20 01:26:59;;;;;;;14.63;8.83;;;;;;;;;;5054114;28;20931;-57
2022/04/20 01:29:29;;;;;;;12.20;9.07;;;;;;;;;;5054149;28;20495;-55
2022/04/20 01:31:55;;;;;;;14.07;10.37;;;;;;;;;;5054062;28;20498;-53
2022/04/20 01:34:22;;;;;;;15.07;10.37;;;;;;;;;;5053993;28;20459;-56
2022/04/20 01:36:48;;;;;;;11.43;9.50;;;;;;;;;;5054089;28;20876;-53
2022/04/20 01:39:15;;;;;;;13.93;10.30;;;;;;;;;;5052669;28;20414;-52
2022/04/20 01:41:41;;;;;;;13.87;8.87;;;;;;;;;;5054179;28;20420;-57
2022/04/20 01:44:10;;;;;;;14.13;10.43;;;;;;;;;;5053820;28;20415;-58
2022/04/20 01:46:36;;;;;;;11.03;9.80;;;;;;;;;;5053874;28;20511;-59
2022/04/20 01:49:02;;;;;;;14.50;9.90;;;;;;;;;;5053821;28;20446;-60
2022/04/20 01:51:47;;;;;;;14.03;10.33;;;;;;;;;;5053806;28;20404;-61
2022/04/20 01:54:13;;;;;;;18.97;10.53;;;;;;;;;;5053594;28;20486;-64
2022/04/20 01:56:40;;;;;;;14.80;10.90;;;;;;;;;;5053547;28;20419;-57
2022/04/20 01:59:06;;;;;;;16.13;10.40;;;;;;;;;;5053530;28;20404;-60
2022/04/20 02:04:16;;;;;;;14.40;10.27;;;;;;;;;;5053351;28;20430;-63
2022/04/20 02:06:42;;;;;;;13.27;10.90;;;;;;;;;;5053411;28;20888;-65
2022/04/20 02:09:08;;;;;;;22.97;11.17;;;;;;;;;;5053223;28;20435;-57
2022/04/20 02:11:35;;;;;;;17.77;10.13;;;;;;;;;;5052101;28;20404;-58
2022/04/20 02:14:01;;;;;;;18.47;12.00;;;;;;;;;;5053218;28;20923;-61
2022/04/20 02:16:27;;;;;;;15.93;10.83;;;;;;;;;;5053150;28;20422;-61
2022/04/20 02:18:53;;;;;;;12.60;10.40;;;;;;;;;;5053369;28;20400;-62
2022/04/20 02:21:19;;;;;;;14.90;11.30;;;;;;;;;;5051573;28;20524;-63
2022/04/20 02:23:45;;;;;;;19.03;11.80;;;;;;;;;;5052449;28;20888;-63
2022/04/20 02:26:11;;;;;;;17.30;11.80;;;;;;;;;;5052897;28;20416;-55
2022/04/20 02:28:40;;;;;;;14.70;11.17;;;;;;;;;;5051805;28;20434;-52
2022/04/20 02:31:06;;;;;;;15.37;10.93;;;;;;;;;;5052969;28;20414;-59
2022/04/20 02:33:32;;;;;;;17.30;12.10;;;;;;;;;;5052960;28;20416;-52
2022/04/20 02:35:58;;;;;;;13.73;11.30;;;;;;;;;;5052753;28;20476;-61
2022/04/20 02:38:24;;;;;;;14.93;11.10;;;;;;;;;;5052859;28;20411;-64
2022/04/20 02:40:52;;;;;;;18.60;11.37;;;;;;;;;;5052958;28;20510;-61
2022/04/20 02:43:18;;;;;;;16.23;11.43;;;;;;;;;;5052780;28;20768;-61
2022/04/20 02:45:44;;;;;;;14.43;11.23;;;;;;;;;;5052669;28;20412;-58
2022/04/20 02:48:10;;;;;;;15.73;10.80;;;;;;;;;;5052618;28;20407;-65
2022/04/20 02:50:36;;;;;;;16.37;11.83;;;;;;;;;;5051274;28;20416;-64
2022/04/20 02:53:02;;;;;;;14.37;11.40;;;;;;;;;;5052766;28;20629;-66
2022/04/20 02:55:28;;;;;;;15.20;10.90;;;;;;;;;;5052554;28;20471;-64
2022/04/20 02:57:54;;;;;;;17.03;11.33;;;;;;;;;;5051226;28;20454;-57
2022/04/20 03:00:20;;;;;;;13.40;10.97;;;;;;;;;;5052799;28;20546;-59
2022/04/20 03:02:47;;;;;;;11.40;10.00;;;;;;;;;;5052476;28;20400;-60
2022/04/20 03:05:13;;;;;;;18.70;10.90;;;;;;;;;;5052429;28;20423;-60
2022/04/20 03:07:39;;;;;;;18.60;11.70;;;;;;;;;;5052292;28;20404;-62
2022/04/20 03:10:05;;;;;;;16.40;11.93;;;;;;;;;;5052316;28;20410;-59
2022/04/20 03:12:31;;;;;;;16.87;12.20;;;;;;;;;;5052285;28;20553;-65
2022/04/20 03:14:57;;;;;;;18.17;11.60;;;;;;;;;;5052197;28;20462;-64
2022/04/20 03:17:24;;;;;;;20.53;11.57;;;;;;;;;;5052553;28;20408;-58
2022/04/20 03:19:51;;;;;;;14.23;11.53;;;;;;;;;;5052340;28;20465;-54
2022/04/20 03:22:17;;;;;;;14.27;11.37;;;;;;;;;;5052351;28;20858;-52
2022/04/20 03:24:43;;;;;;;22.20;11.50;;;;;;;;;;5052349;28;20403;-52
2022/04/20 03:27:09;;;;;;;19.27;11.67;;;;;;;;;;5052369;28;20407;-54
2022/04/20 03:29:35;;;;;;;15.70;10.87;;;;;;;;;;5052354;28;20437;-52
2022/04/20 03:32:12;;;;;;;19.73;10.30;;;;;;;;;;5052196;28;20408;-53
2022/04/20 03:34:39;;;;;;;26.33;11.00;;;;;;;;;;5054801;28;20903;-52
2022/04/20 03:37:05;;;;;;;16.80;10.93;;;;;;;;;;5056474;28;20494;-55
2022/04/20 03:39:32;;;;;;;15.87;9.93;;;;;;;;;;5056264;28;20412;-51
2022/04/20 03:41:58;;;;;;;15.80;10.43;;;;;;;;;;5056133;28;20407;-54
2022/04/20 03:44:24;;;;;;;16.80;10.57;;;;;;;;;;5056260;28;20533;-53
2022/04/20 03:46:53;;;;;;;12.60;10.47;;;;;;;;;;5056363;28;20419;-53
2022/04/20 03:49:19;;;;;;;12.97;10.50;;;;;;;;;;5054744;28;20469;-52
2022/04/20 03:51:46;;;;;;;13.00;10.80;;;;;;;;;;5056112;28;20414;-54
2022/04/20 03:54:12;;;;;;;13.07;10.53;;;;;;;;;;5054774;28;20434;-53
2022/04/20 03:59:23;;;;;;;22.13;10.57;;;;;;;;;;5055924;28;20759;-54
2022/04/20 04:01:51;;;;;;;19.93;11.20;;;;;;;;;;5055818;28;20412;-52
2022/04/20 04:04:17;;;;;;;13.80;10.60;;;;;;;;;;5055673;28;20820;-52
2022/04/20 04:06:43;;;;;;;13.77;10.57;;;;;;;;;;5055683;28;20502;-53
2022/04/20 04:09:09;;;;;;;14.33;10.93;;;;;;;;;;5055569;28;20494;-52
2022/04/20 04:11:35;;;;;;;14.73;10.53;;;;;;;;;;5055617;28;20450;-54
2022/04/20 04:14:01;;;;;;;14.93;11.00;;;;;;;;;;5055329;28;20408;-52
2022/04/20 04:16:27;;;;;;;14.73;10.60;;;;;;;;;;5055437;28;20415;-53
2022/04/20 04:18:53;;;;;;;15.20;9.90;;;;;;;;;;5055741;28;20408;-56
2022/04/20 04:21:20;;;;;;;13.40;10.43;;;;;;;;;;5055209;28;21035;-59
2022/04/20 04:23:46;;;;;;;22.70;10.30;;;;;;;;;;5054573;28;20477;-58
2022/04/20 04:26:13;;;;;;;25.23;11.10;;;;;;;;;;5054191;28;20414;-57
2022/04/20 04:28:40;;;;;;;17.80;10.60;;;;;;;;;;5054204;28;20442;-65
2022/04/20 04:31:09;;;;;;;13.00;9.90;;;;;;;;;;5054334;28;20989;-56
2022/04/20 04:33:35;;;;;;;14.80;10.10;;;;;;;;;;5054175;28;20404;-58
2022/04/20 04:36:02;;;;;;;16.43;10.60;;;;;;;;;;5054223;28;20474;-63
2022/04/20 04:38:28;;;;;;;16.03;10.87;;;;;;;;;;5054084;28;20427;-60
2022/04/20 04:40:54;;;;;;;19.70;11.10;;;;;;;;;;5054066;28;20419;-63
2022/04/20 04:43:20;;;;;;;14.07;10.20;;;;;;;;;;5054154;28;20412;-59
2022/04/20 04:48:36;;;;;;;12.73;9.47;;;;;;;;;;5054176;28;20407;-56
2022/04/20 04:51:06;;;;;;;18.07;9.90;;;;;;;;;;5053926;28;20880;-56
2022/04/20 04:53:32;;;;;;;16.63;10.63;;;;;;;;;;5053959;28;20430;-58
2022/04/20 04:55:58;;;;;;;12.93;10.60;;;;;;;;;;5052398;28;20475;-56
2022/04/20 04:58:24;;;;;;;14.37;10.40;;;;;;;;;;5053941;28;20553;-56
2022/04/20 05:00:50;;;;;;;14.10;9.30;;;;;;;;;;5054717;28;20430;-55
2022/04/20 05:03:17;;;;;;;12.67;9.03;;;;;;;;;;5054638;28;20411;-57
2022/04/20 05:05:49;;;;;;;12.40;9.83;;;;;;;;;;5054580;28;20418;-58
2022/04/20 05:08:15;;;;;;;20.83;10.90;;;;;;;;;;5054497;28;20404;-62
2022/04/20 05:10:41;;;;;;;13.03;10.27;;;;;;;;;;5054222;28;20934;-55
2022/04/20 05:13:07;;;;;;;16.47;10.50;;;;;;;;;;5054273;28;20404;-55
2022/04/20 05:15:36;;;;;;;11.97;10.20;;;;;;;;;;5054213;28;21033;-58
2022/04/20 05:18:03;;;;;;;17.60;9.80;;;;;;;;;;5053085;28;20423;-54
2022/04/20 05:20:29;;;;;;;14.53;9.90;;;;;;;;;;5053894;28;20604;-60
2022/04/20 05:22:55;;;;;;;14.60;10.50;;;;;;;;;;5054518;28;20430;-64
2022/04/20 05:25:21;;;;;;;17.23;10.53;;;;;;;;;;5054233;28;20412;-64
2022/04/20 05:27:50;;;;;;;13.20;9.47;;;;;;;;;;5054100;28;20407;-71
2022/04/20 05:30:16;;;;;;;16.70;10.07;;;;;;;;;;5053996;28;20487;-72
2022/04/20 05:32:42;;;;;;;12.33;10.03;;;;;;;;;;5053833;28;20507;-70
2022/04/20 05:35:09;;;;;;;16.60;10.33;;;;;;;;;;5053735;28;20548;-66
2022/04/20 05:43:05;;;;;;;19.50;10.33;;;;;;;;;;5053715;28;20414;-64
2022/04/20 05:45:31;;;;;;;18.20;10.40;;;;;;;;;;5053779;28;20445;-66
2022/04/20 05:48:01;;;;;;;14.70;10.60;;;;;;;;;;5053402;28;20399;-69
2022/04/20 05:50:27;;;;;;;24.53;10.73;;;;;;;;;;5053724;28;20408;-65
2022/04/20 05:52:53;;;;;;;16.30;10.30;;;;;;;;;;5053780;28;20412;-63
2022/04/20 05:55:20;;;;;;;13.97;10.50;;;;;;;;;;5052177;28;20462;-63
2022/04/20 05:57:47;;;;;;;17.13;10.20;;;;;;;;;;5052643;28;20511;-72
2022/04/20 06:00:14;;;;;;;17.40;10.43;;;;;;;;;;5053415;28;20742;-63
2022/04/20 06:02:40;;;;;;;16.63;10.07;;;;;;;;;;5052251;28;20496;-63
2022/04/20 06:05:07;;;;;;;20.83;10.17;;;;;;;;;;5053405;28;20407;-63
2022/04/20 06:07:34;;;;;;;16.23;10.50;;;;;;;;;;5053373;28;20415;-65
2022/04/20 06:10:03;;;;;;;12.10;9.83;;;;;;;;;;5053155;28;20415;-58
2022/04/20 06:12:29;;;;;;;19.27;11.03;;;;;;;;;;5051970;28;20534;-65
2022/04/20 06:14:55;;;;;;;19.30;10.83;;;;;;;;;;5053056;28;20561;-60
2022/04/20 06:17:21;;;;;;;13.63;10.27;;;;;;;;;;5053237;28;20453;-70
2022/04/20 06:19:47;;;;;;;13.97;9.80;;;;;;;;;;5052888;28;20454;-71
2022/04/20 06:22:13;;;;;;;16.70;10.07;;;;;;;;;;5053008;28;20422;-69
2022/04/20 06:24:42;;;;;;;18.10;10.27;;;;;;;;;;5053032;28;20399;-70
2022/04/20 06:27:08;;;;;;;14.50;10.60;;;;;;;;;;5052977;28;20464;-58
2022/04/20 06:29:37;;;;;;;12.77;10.47;;;;;;;;;;5053022;28;20400;-70
2022/04/20 06:32:05;;;;;;;15.30;9.90;;;;;;;;;;5053036;28;20741;-59
2022/04/20 06:34:31;;;;;;;14.90;9.80;;;;;;;;;;5051600;28;20459;-66
2022/04/20 06:36:57;;;;;;;15.10;10.10;;;;;;;;;;5052853;28;20412;-66
2022/04/20 06:39:23;;;;;;;18.73;10.43;;;;;;;;;;5051574;28;20411;-64
2022/04/20 06:41:50;;;;;;;16.30;10.73;;;;;;;;;;5051287;28;20423;-69
2022/04/20 06:44:16;;;;;;;16.80;10.70;;;;;;;;;;5052653;28;20407;-66
2022/04/20 06:46:42;;;;;;;17.53;10.20;;;;;;;;;;5052400;28;20469;-68
2022/04/20 06:49:08;;;;;;;16.67;10.13;;;;;;;;;;5051174;28;20415;-65
2022/04/20 06:59:48;;;;;;;21.90;11.07;;;;;;;;;;5052684;28;20446;-72
2022/04/20 07:02:15;;;;;;;13.63;10.30;;;;;;;;;;5052491;28;20506;-74
2022/04/20 07:04:41;;;;;;;21.37;10.43;;;;;;;;;;5052519;28;20400;-75
2022/04/20 07:07:07;;;;;;;11.67;9.63;;;;;;;;;;5052561;28;20895;-75
2022/04/20 07:09:33;;;;;;;14.90;10.57;;;;;;;;;;5050473;28;21011;-62
2022/04/20 07:11:59;;;;;;;17.60;10.37;;;;;;;;;;5051701;28;20399;-72
2022/04/20 07:14:28;;;;;;;23.40;10.20;;;;;;;;;;5051607;28;20978;-71
2022/04/20 07:16:54;;;;;;;17.10;9.90;;;;;;;;;;5051465;28;20424;-69
2022/04/20 07:19:20;;;;;;;11.20;10.03;;;;;;;;;;5052521;28;20971;-70
2022/04/20 07:21:49;;;;;;;10.67;9.57;;;;;;;;;;5052137;28;20606;-72
2022/04/20 07:24:15;;;;;;;14.47;9.60;;;;;;;;;;5052224;28;20430;-72
2022/04/20 07:26:41;;;;;;;11.53;9.43;;;;;;;;;;5052297;28;20920;-70
2022/04/20 07:29:10;;;;;;;16.53;9.60;;;;;;;;;;5052308;28;20486;-74
2022/04/20 07:31:36;;;;;;;16.07;9.30;;;;;;;;;;5052440;28;20419;-72
2022/04/20 07:34:02;;;;;;;21.77;10.50;;;;;;;;;;5052213;28;20416;-72
2022/04/20 07:36:29;;;;;;;13.80;9.87;;;;;;;;;;5052190;28;20553;-73
2022/04/20 07:38:55;;;;;;;11.53;9.10;;;;;;;;;;5052765;28;20411;-72
2022/04/20 07:41:21;;;;;;;10.60;9.50;;;;;;;;;;5051284;28;20916;-67
2022/04/20 07:43:47;;;;;;;12.87;9.90;;;;;;;;;;5051315;28;20415;-54
2022/04/20 07:46:16;;;;;;;10.90;9.60;;;;;;;;;;5052438;28;20426;-54
2022/04/20 07:48:42;;;;;;;14.10;10.40;;;;;;;;;;5036325;28;20419;-56
2022/04/20 07:51:08;;;;;;;27.10;10.00;;;;;;;;;;5065767;28;20419;-56
2022/04/20 07:53:34;;;;;;;11.50;9.87;;;;;;;;;;5058601;28;20478;-58
2022/04/20 07:56:00;;;;;;;12.77;9.97;;;;;;;;;;5086612;28;20470;-54
2022/04/20 07:58:26;;;;;;;18.80;10.70;;;;;;;;;;5070893;28;20399;-53
2022/04/20 08:00:53;;;;;;;13.23;11.10;;;;;;;;;;5069472;28;20463;-54
2022/04/20 08:03:19;;;;;;;17.57;9.90;;;;;;;;;;5053303;28;20838;-54
2022/04/20 08:05:56;;;;;;;14.07;10.73;;;;;;;;;;5050919;28;20411;-54
2022/04/20 08:08:23;;;;;;;11.30;10.10;;;;;;;;;;5051226;28;20411;-53
2022/04/20 08:10:52;;;;;;;13.50;9.87;;;;;;;;;;5050791;28;20458;-55
2022/04/20 08:16:03;;;;;;;15.77;11.40;;;;;;;;;;5050568;28;20583;-56
2022/04/20 08:18:29;;;;;;;18.13;11.07;;;;;;;;;;5052610;28;20490;-51
2022/04/20 08:20:55;;;;;;;17.10;10.37;;;;;;;;;;5070766;28;20505;-51
2022/04/20 08:23:21;;;;;;;15.50;11.00;;;;;;;;;;5074686;28;20911;-56
2022/04/20 08:25:47;;;;;;;13.00;10.13;;;;;;;;;;5074638;28;20439;-53
2022/04/20 08:28:13;;;;;;;16.67;10.23;;;;;;;;;;5074339;28;20923;-51
2022/04/20 08:30:40;;;;;;;12.43;10.63;;;;;;;;;;5074563;28;20744;-52
2022/04/20 08:33:07;;;;;;;11.23;9.80;;;;;;;;;;5074480;28;20398;-52
2022/04/20 08:35:37;;;;;;;16.43;10.67;;;;;;;;;;5074624;28;20462;-51
2022/04/20 08:38:03;;;;;;;11.87;10.37;;;;;;;;;;5074131;28;20489;-52
2022/04/20 08:40:29;;;;;;;14.10;11.17;;;;;;;;;;5074158;28;20433;-53
2022/04/20 08:42:56;;;;;;;14.13;10.50;;;;;;;;;;5074063;28;20909;-52
2022/04/20 08:45:22;;;;;;;21.43;10.50;;;;;;;;;;5074389;28;20411;-52
2022/04/20 08:47:50;;;;;;;12.00;10.53;;;;;;;;;;5074103;28;20417;-53
2022/04/20 08:50:16;;;;;;;15.70;10.00;;;;;;;;;;5074180;28;20468;-52
2022/04/20 08:52:46;;;;;;;11.50;10.30;;;;;;;;;;5071237;28;20510;-55
2022/04/20 08:55:17;;;;;;;13.50;10.70;;;;;;;;;;5053778;28;20600;-58
2022/04/20 08:57:44;;;;;;;19.70;10.70;;;;;;;;;;5053537;28;20411;-52
2022/04/20 09:00:12;;;;;;;12.07;10.07;;;;;;;;;;5053466;28;20422;-53
2022/04/20 09:02:38;;;;;;;13.73;11.20;;;;;;;;;;5053419;28;20423;-54
2022/04/20 09:05:05;;;;;;;13.37;10.00;;;;;;;;;;5052346;28;20419;-67
2022/04/20 09:07:31;;;;;;;17.37;11.50;;;;;;;;;;5053697;28;20416;-68
2022/04/20 09:10:01;;;;;;;11.83;10.30;;;;;;;;;;5053691;28;20920;-52
2022/04/20 09:12:29;;;;;;;13.97;10.17;;;;;;;;;;5053732;28;20403;-60
2022/04/20 09:14:56;;;;;;;10.50;9.40;;;;;;;;;;5051995;28;20458;-51
2022/04/20 09:17:24;;;;;;;11.40;9.70;;;;;;;;;;5053522;28;20915;-56
2022/04/20 09:19:51;;;;;;;10.93;9.70;;;;;;;;;;5053478;28;20447;-57
2022/04/20 09:22:27;;;;;;;15.77;10.20;;;;;;;;;;5053406;28;20420;-64
2022/04/20 09:24:59;;;;;;;11.10;9.90;;;;;;;;;;5053312;28;20403;-57
2022/04/20 09:27:30;;;;;;;22.20;10.00;;;;;;;;;;5053372;28;20907;-53
2022/04/20 09:29:56;;;;;;;14.10;8.30;;;;;;;;;;5052125;28;20416;-58
2022/04/20 09:32:36;;;;;;;20.30;9.00;;;;;;;;;;5053431;28;20502;-55
2022/04/20 09:35:06;;;;;;;8.77;7.97;;;;;;;;;;5053090;28;20470;-55
2022/04/20 09:37:32;;;;;;;13.10;8.13;;;;;;;;;;5053112;28;20404;-56
2022/04/20 09:39:59;;;;;;;13.53;7.93;;;;;;;;;;5053294;28;20753;-57
2022/04/20 09:42:25;;;;;;;13.60;8.37;;;;;;;;;;5051940;28;20416;-56
2022/04/20 09:45:00;;;;;;;12.27;8.27;;;;;;;;;;5053361;28;20412;-61
2022/04/20 09:50:13;;;;;;;16.90;8.23;;;;;;;;;;5053325;28;20438;-54
2022/04/20 09:52:41;;;;;;;10.40;8.33;;;;;;;;;;5055487;28;20817;-58
2022/04/20 09:55:07;;;;;;;14.60;8.90;;;;;;;;;;5072923;28;20458;-59
2022/04/20 09:57:37;;;;;;;12.00;8.30;;;;;;;;;;5072725;28;20410;-54
2022/04/20 10:00:03;;;;;;;15.80;8.37;;;;;;;;;;5072840;28;20406;-57
2022/04/20 10:02:30;;;;;;;11.07;8.40;;;;;;;;;;5072763;28;20421;-54
2022/04/20 10:04:57;;;;;;;11.33;8.00;;;;;;;;;;5072690;28;20510;-54
2022/04/20 10:07:23;;;;;;;9.90;7.90;;;;;;;;;;5072726;28;21006;-60
2022/04/20 10:09:49;;;;;;;12.47;8.00;;;;;;;;;;5072741;28;20411;-60
2022/04/20 10:12:16;;;;;;;11.97;8.40;;;;;;;;;;5072788;28;20781;-55
2022/04/20 10:17:31;;;;;;;12.00;9.70;;;;;;;;;;5072664;28;20413;-57
2022/04/20 10:20:02;;;;;;;12.57;8.33;;;;;;;;;;5088092;28;20467;-55
2022/04/20 10:22:31;;;;;;;9.57;8.67;;;;;;;;;;5072797;28;20406;-56
2022/04/20 10:24:57;;;;;;;20.87;9.40;;;;;;;;;;5072621;28;20453;-55
2022/04/20 10:27:43;;;;;;;10.00;8.57;;;;;;;;;;5072769;28;20406;-56
2022/04/20 10:30:32;;;;;;;10.77;8.57;;;;;;;;;;5041915;28;20417;-54
2022/04/20 10:33:03;;;;;;;12.13;9.40;;;;;;;;;;5065044;28;20421;-53
2022/04/20 10:35:29;;;;;;;14.50;8.80;;;;;;;;;;5087588;28;20474;-53
2022/04/20 10:38:12;;;;;;;11.63;8.97;;;;;;;;;;5072268;28;20505;-54
2022/04/20 10:40:56;;;;;;;10.77;9.67;;;;;;;;;;5072251;28;20505;-56
2022/04/20 10:43:26;;;;;;;9.70;8.80;;;;;;;;;;5071801;28;20415;-53
2022/04/20 10:46:16;;;;;;;9.40;8.23;;;;;;;;;;5072332;28;20407;-54
2022/04/20 10:48:55;;;;;;;14.63;9.37;;;;;;;;;;5072317;28;20415;-53
2022/04/20 10:51:26;;;;;;;12.00;8.80;;;;;;;;;;5072239;28;20494;-54
2022/04/20 10:53:52;;;;;;;9.60;8.70;;;;;;;;;;5060099;28;20442;-56
2022/04/20 10:56:20;;;;;;;12.20;9.13;;;;;;;;;;5051992;28;20564;-52
2022/04/20 10:59:04;;;;;;;10.33;9.00;;;;;;;;;;5052178;28;20951;-54
2022/04/20 11:01:30;;;;;;;11.70;8.50;;;;;;;;;;5050550;28;20919;-57
2022/04/20 11:03:59;;;;;;;8.47;7.67;;;;;;;;;;5052007;28;20407;-57
2022/04/20 11:06:29;;;;;;;8.10;7.40;;;;;;;;;;5050643;28;20419;-55
2022/04/20 11:09:01;;;;;;;11.93;8.67;;;;;;;;;;5051711;28;20419;-56
2022/04/20 11:20:22;;;;;;;8.77;7.97;;;;;;;;;;5051398;28;20505;-59
2022/04/20 11:22:48;;;;;;;9.00;8.10;;;;;;;;;;5051471;28;20462;-56
2022/04/20 11:25:14;;;;;;;9.27;8.40;;;;;;;;;;5050246;28;20796;-58
2022/04/20 11:27:40;;;;;;;11.03;8.80;;;;;;;;;;5051503;28;20503;-53
2022/04/20 11:30:07;;;;;;;10.57;8.90;;;;;;;;;;5050960;28;20407;-59
2022/04/20 11:32:33;;;;;;;12.60;8.20;;;;;;;;;;5051336;28;20418;-54
2022/04/20 11:35:11;;;;;;;8.60;7.80;;;;;;;;;;5051256;28;20466;-58
2022/04/20 11:37:39;;;;;;;9.50;8.50;;;;;;;;;;5051481;28;20446;-61
2022/04/20 11:40:11;;;;;;;11.43;9.30;;;;;;;;;;5051425;28;20432;-55
2022/04/20 11:42:37;;;;;;;11.47;9.17;;;;;;;;;;5051500;28;20432;-57
2022/04/20 11:45:03;;;;;;;11.97;9.90;;;;;;;;;;5051360;28;20408;-58
2022/04/20 11:47:29;;;;;;;20.80;9.77;;;;;;;;;;5051210;28;20410;-57
2022/04/20 11:49:56;;;;;;;12.73;10.10;;;;;;;;;;5050135;28;21002;-60
2022/04/20 11:52:22;;;;;;;10.97;9.87;;;;;;;;;;5051576;28;20420;-55
2022/04/20 11:54:48;;;;;;;12.73;10.87;;;;;;;;;;5071211;28;20454;-68
2022/04/20 11:57:15;;;;;;;11.03;10.00;;;;;;;;;;5073591;28;20779;-59
2022/04/20 11:59:43;;;;;;;15.73;11.23;;;;;;;;;;5075168;28;20406;-57
2022/04/20 12:02:12;;;;;;;14.90;9.73;;;;;;;;;;5075058;28;20764;-56
2022/04/20 12:04:39;;;;;;;13.13;10.33;;;;;;;;;;5065446;28;20414;-57
2022/04/20 12:07:05;;;;;;;13.70;10.83;;;;;;;;;;5055094;28;20412;-58
2022/04/20 12:09:37;;;;;;;17.60;10.97;;;;;;;;;;5054829;28;20412;-65
2022/04/20 12:12:04;;;;;;;11.90;10.00;;;;;;;;;;5055123;28;20764;-63
2022/04/20 12:14:32;;;;;;;13.10;10.87;;;;;;;;;;5053677;28;20446;-61
2022/04/20 12:17:00;;;;;;;12.93;11.30;;;;;;;;;;5053783;28;20973;-63
2022/04/20 12:19:26;;;;;;;12.17;10.70;;;;;;;;;;5054677;28;20407;-63
2022/04/20 12:21:52;;;;;;;12.00;10.77;;;;;;;;;;5054891;28;20419;-56
2022/04/20 12:24:20;;;;;;;14.23;11.03;;;;;;;;;;5053405;28;20415;-58
2022/04/20 12:26:47;;;;;;;13.17;10.77;;;;;;;;;;5054768;28;20493;-53
2022/04/20 12:29:14;;;;;;;12.77;10.93;;;;;;;;;;5054561;28;20429;-53
2022/04/20 12:31:44;;;;;;;14.37;10.77;;;;;;;;;;5053126;28;20443;-58
2022/04/20 12:34:11;;;;;;;20.43;11.30;;;;;;;;;;5054653;28;20469;-58
2022/04/20 12:36:51;;;;;;;13.03;11.20;;;;;;;;;;5053299;28;20551;-57
2022/04/20 12:39:34;;;;;;;14.30;11.50;;;;;;;;;;5054322;28;20810;-55
2022/04/20 12:42:07;;;;;;;18.27;12.53;;;;;;;;;;5054477;28;20499;-55
2022/04/20 12:44:36;;;;;;;14.80;12.13;;;;;;;;;;5054531;28;20802;-62
2022/04/20 12:47:11;;;;;;;13.00;11.13;;;;;;;;;;5053106;28;20514;-57
2022/04/20 12:49:41;;;;;;;17.00;11.47;;;;;;;;;;5054146;28;20914;-59
2022/04/20 12:52:12;;;;;;;13.17;11.57;;;;;;;;;;5054225;28;20419;-54
2022/04/20 12:54:38;;;;;;;14.50;11.50;;;;;;;;;;5072409;28;20869;-53
2022/04/20 13:03:16;;;;;;;12.80;11.00;;;;;;;;;;5074086;28;20414;-59
2022/04/20 13:05:43;;;;;;;16.73;10.27;;;;;;;;;;5073783;28;20406;-58
2022/04/20 13:08:10;;;;;;;11.03;10.03;;;;;;;;;;5073527;28;20451;-56
2022/04/20 13:10:37;;;;;;;17.73;10.00;;;;;;;;;;5073917;28;20406;-55
2022/04/20 13:13:04;;;;;;;10.27;9.37;;;;;;;;;;5073871;28;20540;-56
2022/04/20 13:15:30;;;;;;;9.87;8.60;;;;;;;;;;5089093;28;20918;-57
2022/04/20 13:17:59;;;;;;;10.07;9.07;;;;;;;;;;5073731;28;20452;-59
2022/04/20 13:20:27;;;;;;;9.73;8.80;;;;;;;;;;5073537;28;20465;-56
2022/04/20 13:22:53;;;;;;;9.60;8.33;;;;;;;;;;5073802;28;20406;-55
2022/04/20 13:28:04;;;;;;;9.77;8.40;;;;;;;;;;5073634;28;20449;-56
2022/04/20 13:30:38;;;;;;;9.23;8.30;;;;;;;;;;5089025;28;20407;-52
2022/04/20 13:33:09;;;;;;;10.77;8.77;;;;;;;;;;5073606;28;20399;-54
2022/04/20 13:35:35;;;;;;;9.17;8.20;;;;;;;;;;5073319;28;20459;-58
2022/04/20 13:38:02;;;;;;;9.13;8.27;;;;;;;;;;5069814;28;20749;-63
2022/04/20 13:40:28;;;;;;;11.63;7.83;;;;;;;;;;5053222;28;20416;-54
2022/04/20 13:42:54;;;;;;;8.60;7.90;;;;;;;;;;5052169;28;20411;-54
2022/04/20 13:45:21;;;;;;;11.77;7.73;;;;;;;;;;5052002;28;20509;-54
2022/04/20 13:47:47;;;;;;;8.80;8.00;;;;;;;;;;5053460;28;20830;-55
2022/04/20 13:50:15;;;;;;;11.07;8.10;;;;;;;;;;5051746;28;20434;-54
2022/04/20 13:52:41;;;;;;;9.97;8.10;;;;;;;;;;5055410;28;20888;-55
2022/04/20 13:55:09;;;;;;;8.87;7.97;;;;;;;;;;5088566;28;21000;-56
2022/04/20 13:57:38;;;;;;;7.43;6.83;;;;;;;;;;5072872;28;20414;-58
2022/04/20 14:00:05;;;;;;;7.10;6.50;;;;;;;;;;5072766;28;20777;-55
2022/04/20 14:02:32;;;;;;;7.93;7.23;;;;;;;;;;5072676;28;20406;-57
2022/04/20 14:04:58;;;;;;;13.30;8.60;;;;;;;;;;5072822;28;20407;-52
2022/04/20 14:07:24;;;;;;;7.90;7.20;;;;;;;;;;5072682;28;20745;-63
2022/04/20 14:09:50;;;;;;;6.77;6.20;;;;;;;;;;5072681;28;20422;-61
2022/04/20 14:12:21;;;;;;;8.40;7.50;;;;;;;;;;5088073;28;20839;-60
2022/04/20 14:14:48;;;;;;;6.93;6.40;;;;;;;;;;5088430;28;20462;-62
2022/04/20 14:17:15;;;;;;;9.17;7.87;;;;;;;;;;5072478;28;20421;-58
2022/04/20 14:19:43;;;;;;;9.07;7.10;;;;;;;;;;5086968;28;20418;-65
2022/04/20 14:22:09;;;;;;;7.03;6.43;;;;;;;;;;5072514;28;20479;-59
2022/04/20 14:24:35;;;;;;;7.20;6.60;;;;;;;;;;5072496;28;20410;-58
2022/04/20 14:32:32;;;;;;;11.00;6.37;;;;;;;;;;5072266;28;20650;-56
2022/04/20 14:35:03;;;;;;;7.30;6.70;;;;;;;;;;5087626;28;20531;-58
2022/04/20 14:37:30;;;;;;;7.97;7.20;;;;;;;;;;5072035;28;20399;-57
2022/04/20 14:39:59;;;;;;;7.60;6.43;;;;;;;;;;5052807;28;20403;-59
2022/04/20 14:42:25;;;;;;;7.13;5.43;;;;;;;;;;5052120;28;20407;-57
2022/04/20 14:44:51;;;;;;;6.00;5.40;;;;;;;;;;5050846;28;20469;-64
2022/04/20 14:47:17;;;;;;;5.60;5.20;;;;;;;;;;5051986;28;20439;-61
2022/04/20 14:49:44;;;;;;;6.30;5.80;;;;;;;;;;5051749;28;20414;-60
2022/04/20 14:52:15;;;;;;;6.90;5.17;;;;;;;;;;5051962;28;20412;-58
2022/04/20 14:54:42;;;;;;;5.37;4.87;;;;;;;;;;5070557;28;20458;-60
2022/04/20 14:57:09;;;;;;;5.50;4.80;;;;;;;;;;5071854;28;20411;-60
2022/04/20 14:59:35;;;;;;;5.60;5.20;;;;;;;;;;5071840;28;20460;-60
2022/04/20 15:02:02;;;;;;;5.13;4.60;;;;;;;;;;5087355;28;20791;-60
2022/04/20 15:04:28;;;;;;;6.50;4.83;;;;;;;;;;5071732;28;20420;-58
2022/04/20 15:06:55;;;;;;;5.50;5.00;;;;;;;;;;5087586;28;20768;-60
2022/04/20 15:09:25;;;;;;;5.00;4.67;;;;;;;;;;5071792;28;20759;-61
2022/04/20 15:11:51;;;;;;;6.10;5.50;;;;;;;;;;5071953;28;20457;-59
2022/04/20 15:14:17;;;;;;;5.63;5.23;;;;;;;;;;5071372;28;20429;-60
2022/04/20 15:16:45;;;;;;;9.10;6.17;;;;;;;;;;5071433;28;20516;-59
2022/04/20 15:19:11;;;;;;;5.17;4.80;;;;;;;;;;5071719;28;20411;-62
2022/04/20 15:21:38;;;;;;;4.57;4.27;;;;;;;;;;5071092;28;20498;-58